KAPG/APG METAR and TAF weather

Enter ICAO airport designator
Station Type Date Time Source
KAPG METAR 2019/10/18 20:45 UTC NOAA

KAPG 182045Z VRB05KT 7SM SKC 17/02 A2994


Station Type Date Time Source
KAPG Decoded METAR 2019/10/18 20:45 UTC NOAA

Phillips Army Air Field / Aberdeen, MD, United States (KAPG) 39-28N 076-10W
Oct 18, 2019 - 04:45 PM EDT / 2019.10.18 2045 UTC
Wind: Variable at 6 MPH (5 KT):0
Visibility: 7 mile(s):0
Sky conditions: clear
Temperature: 62 F (17 C)
Dew Point: 35 F (2 C)
Relative Humidity: 36%
Pressure (altimeter): 29.94 in. Hg (1013 hPa)
ob: KAPG 182045Z VRB05KT 7SM SKC 17/02 A2994
cycle: 21

Station Type Date Time Source
KAPG TAF UTC NOAA

Error!

Example: see airport list